sensor_id;sensor_type;location;lat;lon;timestamp;P1;durP1;ratioP1;P2;durP2;ratioP2
9508;SDS011;4792;50.088;8.122;2023-03-05T00:01:13;22.97;;;12.23;;
9508;SDS011;4792;50.088;8.122;2023-03-05T00:03:43;18.90;;;11.27;;
9508;SDS011;4792;50.088;8.122;2023-03-05T00:06:12;19.87;;;11.67;;
9508;SDS011;4792;50.088;8.122;2023-03-05T00:08:42;20.17;;;11.70;;
9508;SDS011;4792;50.088;8.122;2023-03-05T00:11:10;19.53;;;11.60;;
9508;SDS011;4792;50.088;8.122;2023-03-05T00:13:38;19.00;;;11.57;;
9508;SDS011;4792;50.088;8.122;2023-03-05T00:16:07;21.53;;;11.63;;
9508;SDS011;4792;50.088;8.122;2023-03-05T00:18:36;17.67;;;11.53;;
9508;SDS011;4792;50.088;8.122;2023-03-05T00:21:12;22.63;;;12.23;;
9508;SDS011;4792;50.088;8.122;2023-03-05T00:23:45;18.90;;;10.80;;
9508;SDS011;4792;50.088;8.122;2023-03-05T00:26:15;18.43;;;11.93;;
9508;SDS011;4792;50.088;8.122;2023-03-05T00:28:43;19.47;;;11.97;;
9508;SDS011;4792;50.088;8.122;2023-03-05T00:31:15;19.47;;;11.23;;
9508;SDS011;4792;50.088;8.122;2023-03-05T00:33:43;20.27;;;11.73;;
9508;SDS011;4792;50.088;8.122;2023-03-05T00:36:11;14.87;;;10.40;;
9508;SDS011;4792;50.088;8.122;2023-03-05T00:38:40;31.40;;;11.80;;
9508;SDS011;4792;50.088;8.122;2023-03-05T00:41:08;21.93;;;10.40;;
9508;SDS011;4792;50.088;8.122;2023-03-05T00:43:35;20.07;;;11.03;;
9508;SDS011;4792;50.088;8.122;2023-03-05T00:46:03;21.47;;;9.90;;
9508;SDS011;4792;50.088;8.122;2023-03-05T00:48:31;19.10;;;10.20;;
9508;SDS011;4792;50.088;8.122;2023-03-05T00:50:59;22.07;;;11.23;;
9508;SDS011;4792;50.088;8.122;2023-03-05T00:53:27;22.17;;;10.37;;
9508;SDS011;4792;50.088;8.122;2023-03-05T00:55:56;17.87;;;9.30;;
9508;SDS011;4792;50.088;8.122;2023-03-05T00:58:24;20.80;;;9.63;;
9508;SDS011;4792;50.088;8.122;2023-03-05T01:00:52;19.60;;;9.50;;
9508;SDS011;4792;50.088;8.122;2023-03-05T01:03:24;16.63;;;9.57;;
9508;SDS011;4792;50.088;8.122;2023-03-05T01:05:52;19.20;;;9.43;;
9508;SDS011;4792;50.088;8.122;2023-03-05T01:08:19;16.90;;;9.30;;
9508;SDS011;4792;50.088;8.122;2023-03-05T01:10:47;18.27;;;9.17;;
9508;SDS011;4792;50.088;8.122;2023-03-05T01:13:16;16.50;;;8.60;;
9508;SDS011;4792;50.088;8.122;2023-03-05T01:15:45;18.63;;;9.77;;
9508;SDS011;4792;50.088;8.122;2023-03-05T01:18:14;19.70;;;9.30;;
9508;SDS011;4792;50.088;8.122;2023-03-05T01:20:42;19.73;;;9.47;;
9508;SDS011;4792;50.088;8.122;2023-03-05T01:23:11;16.03;;;9.53;;
9508;SDS011;4792;50.088;8.122;2023-03-05T01:25:39;19.33;;;9.67;;
9508;SDS011;4792;50.088;8.122;2023-03-05T01:28:07;14.03;;;9.57;;
9508;SDS011;4792;50.088;8.122;2023-03-05T01:30:36;25.53;;;10.73;;
9508;SDS011;4792;50.088;8.122;2023-03-05T01:33:04;20.33;;;9.47;;
9508;SDS011;4792;50.088;8.122;2023-03-05T01:35:32;22.07;;;10.33;;
9508;SDS011;4792;50.088;8.122;2023-03-05T01:38:00;19.53;;;10.47;;
9508;SDS011;4792;50.088;8.122;2023-03-05T01:40:28;22.13;;;10.53;;
9508;SDS011;4792;50.088;8.122;2023-03-05T01:42:58;18.83;;;10.67;;
9508;SDS011;4792;50.088;8.122;2023-03-05T01:45:28;20.23;;;11.20;;
9508;SDS011;4792;50.088;8.122;2023-03-05T01:47:59;21.73;;;11.07;;
9508;SDS011;4792;50.088;8.122;2023-03-05T01:50:26;15.60;;;9.73;;
9508;SDS011;4792;50.088;8.122;2023-03-05T01:52:56;15.73;;;9.60;;
9508;SDS011;4792;50.088;8.122;2023-03-05T01:55:26;19.20;;;10.17;;
9508;SDS011;4792;50.088;8.122;2023-03-05T01:57:56;19.40;;;10.73;;
9508;SDS011;4792;50.088;8.122;2023-03-05T02:00:28;22.00;;;11.27;;
9508;SDS011;4792;50.088;8.122;2023-03-05T02:02:59;18.67;;;10.77;;
9508;SDS011;4792;50.088;8.122;2023-03-05T02:05:29;27.40;;;11.03;;
9508;SDS011;4792;50.088;8.122;2023-03-05T02:07:59;21.30;;;11.63;;
9508;SDS011;4792;50.088;8.122;2023-03-05T02:10:28;24.63;;;11.83;;
9508;SDS011;4792;50.088;8.122;2023-03-05T02:12:58;24.07;;;11.67;;
9508;SDS011;4792;50.088;8.122;2023-03-05T02:15:27;20.40;;;11.33;;
9508;SDS011;4792;50.088;8.122;2023-03-05T02:17:55;17.97;;;10.67;;
9508;SDS011;4792;50.088;8.122;2023-03-05T02:20:25;18.77;;;11.33;;
9508;SDS011;4792;50.088;8.122;2023-03-05T02:22:56;20.70;;;11.33;;
9508;SDS011;4792;50.088;8.122;2023-03-05T02:25:25;18.37;;;11.37;;
9508;SDS011;4792;50.088;8.122;2023-03-05T02:27:56;21.87;;;11.50;;
9508;SDS011;4792;50.088;8.122;2023-03-05T02:30:27;19.23;;;11.23;;
9508;SDS011;4792;50.088;8.122;2023-03-05T02:32:56;24.90;;;11.90;;
9508;SDS011;4792;50.088;8.122;2023-03-05T02:35:25;19.57;;;11.30;;
9508;SDS011;4792;50.088;8.122;2023-03-05T02:37:53;22.17;;;11.97;;
9508;SDS011;4792;50.088;8.122;2023-03-05T02:40:22;18.33;;;10.60;;
9508;SDS011;4792;50.088;8.122;2023-03-05T02:42:50;23.30;;;11.70;;
9508;SDS011;4792;50.088;8.122;2023-03-05T02:45:18;19.73;;;11.87;;
9508;SDS011;4792;50.088;8.122;2023-03-05T02:47:46;24.17;;;12.13;;
9508;SDS011;4792;50.088;8.122;2023-03-05T02:50:14;19.43;;;11.07;;
9508;SDS011;4792;50.088;8.122;2023-03-05T02:52:42;18.00;;;11.80;;
9508;SDS011;4792;50.088;8.122;2023-03-05T02:55:10;25.00;;;12.07;;
9508;SDS011;4792;50.088;8.122;2023-03-05T02:57:39;22.13;;;11.93;;
9508;SDS011;4792;50.088;8.122;2023-03-05T03:00:07;22.93;;;11.43;;
9508;SDS011;4792;50.088;8.122;2023-03-05T03:02:36;25.43;;;13.00;;
9508;SDS011;4792;50.088;8.122;2023-03-05T03:05:04;24.23;;;11.70;;
9508;SDS011;4792;50.088;8.122;2023-03-05T03:07:33;25.20;;;12.87;;
9508;SDS011;4792;50.088;8.122;2023-03-05T03:10:01;23.17;;;12.23;;
9508;SDS011;4792;50.088;8.122;2023-03-05T03:12:29;23.50;;;12.23;;
9508;SDS011;4792;50.088;8.122;2023-03-05T03:14:59;22.23;;;12.63;;
9508;SDS011;4792;50.088;8.122;2023-03-05T03:17:27;24.40;;;12.57;;
9508;SDS011;4792;50.088;8.122;2023-03-05T03:19:55;24.37;;;12.97;;
9508;SDS011;4792;50.088;8.122;2023-03-05T03:22:22;26.37;;;13.67;;
9508;SDS011;4792;50.088;8.122;2023-03-05T03:24:50;26.87;;;13.77;;
9508;SDS011;4792;50.088;8.122;2023-03-05T03:27:18;23.80;;;11.93;;
9508;SDS011;4792;50.088;8.122;2023-03-05T03:29:46;23.67;;;12.20;;
9508;SDS011;4792;50.088;8.122;2023-03-05T03:32:15;31.23;;;13.93;;
9508;SDS011;4792;50.088;8.122;2023-03-05T03:34:43;21.10;;;13.07;;
9508;SDS011;4792;50.088;8.122;2023-03-05T03:37:11;29.57;;;14.27;;
9508;SDS011;4792;50.088;8.122;2023-03-05T03:39:38;25.63;;;13.57;;
9508;SDS011;4792;50.088;8.122;2023-03-05T03:42:06;28.20;;;14.20;;
9508;SDS011;4792;50.088;8.122;2023-03-05T03:44:34;28.03;;;14.17;;
9508;SDS011;4792;50.088;8.122;2023-03-05T03:47:02;23.70;;;12.70;;
9508;SDS011;4792;50.088;8.122;2023-03-05T03:49:31;29.23;;;13.90;;
9508;SDS011;4792;50.088;8.122;2023-03-05T03:51:59;27.97;;;13.93;;
9508;SDS011;4792;50.088;8.122;2023-03-05T03:54:27;29.13;;;13.63;;
9508;SDS011;4792;50.088;8.122;2023-03-05T03:56:55;25.57;;;13.27;;
9508;SDS011;4792;50.088;8.122;2023-03-05T03:59:23;23.37;;;13.20;;
9508;SDS011;4792;50.088;8.122;2023-03-05T04:01:51;28.20;;;12.87;;
9508;SDS011;4792;50.088;8.122;2023-03-05T04:04:19;33.70;;;14.40;;
9508;SDS011;4792;50.088;8.122;2023-03-05T04:06:48;26.80;;;13.37;;
9508;SDS011;4792;50.088;8.122;2023-03-05T04:09:16;22.97;;;12.50;;
9508;SDS011;4792;50.088;8.122;2023-03-05T04:11:44;26.80;;;13.17;;
9508;SDS011;4792;50.088;8.122;2023-03-05T04:14:11;26.47;;;13.03;;
9508;SDS011;4792;50.088;8.122;2023-03-05T04:16:39;22.00;;;12.27;;
9508;SDS011;4792;50.088;8.122;2023-03-05T04:19:07;18.37;;;10.50;;
9508;SDS011;4792;50.088;8.122;2023-03-05T04:21:35;22.07;;;10.00;;
9508;SDS011;4792;50.088;8.122;2023-03-05T04:24:04;20.77;;;10.03;;
9508;SDS011;4792;50.088;8.122;2023-03-05T04:26:33;18.67;;;10.10;;
9508;SDS011;4792;50.088;8.122;2023-03-05T04:29:01;15.27;;;9.30;;
9508;SDS011;4792;50.088;8.122;2023-03-05T04:31:29;18.50;;;9.53;;
9508;SDS011;4792;50.088;8.122;2023-03-05T04:33:58;18.27;;;8.77;;
9508;SDS011;4792;50.088;8.122;2023-03-05T04:36:26;18.53;;;9.07;;
9508;SDS011;4792;50.088;8.122;2023-03-05T04:38:53;18.53;;;8.70;;
9508;SDS011;4792;50.088;8.122;2023-03-05T04:41:23;18.63;;;8.97;;
9508;SDS011;4792;50.088;8.122;2023-03-05T04:43:50;16.90;;;8.20;;
9508;SDS011;4792;50.088;8.122;2023-03-05T04:46:18;15.83;;;7.27;;
9508;SDS011;4792;50.088;8.122;2023-03-05T04:48:46;12.97;;;7.03;;
9508;SDS011;4792;50.088;8.122;2023-03-05T04:51:14;18.23;;;8.17;;
9508;SDS011;4792;50.088;8.122;2023-03-05T04:53:42;20.73;;;7.40;;
9508;SDS011;4792;50.088;8.122;2023-03-05T04:56:09;18.40;;;8.30;;
9508;SDS011;4792;50.088;8.122;2023-03-05T04:58:39;16.57;;;7.37;;
9508;SDS011;4792;50.088;8.122;2023-03-05T05:01:07;14.97;;;6.93;;
9508;SDS011;4792;50.088;8.122;2023-03-05T05:03:35;13.27;;;7.53;;
9508;SDS011;4792;50.088;8.122;2023-03-05T05:06:03;13.63;;;5.77;;
9508;SDS011;4792;50.088;8.122;2023-03-05T05:08:31;14.57;;;6.07;;
9508;SDS011;4792;50.088;8.122;2023-03-05T05:10:59;14.73;;;6.97;;
9508;SDS011;4792;50.088;8.122;2023-03-05T05:13:28;13.20;;;6.50;;
9508;SDS011;4792;50.088;8.122;2023-03-05T05:15:58;18.30;;;6.73;;
9508;SDS011;4792;50.088;8.122;2023-03-05T05:18:26;10.93;;;6.00;;
9508;SDS011;4792;50.088;8.122;2023-03-05T05:20:54;15.20;;;7.43;;
9508;SDS011;4792;50.088;8.122;2023-03-05T05:23:22;16.33;;;7.23;;
9508;SDS011;4792;50.088;8.122;2023-03-05T05:25:56;16.13;;;7.47;;
9508;SDS011;4792;50.088;8.122;2023-03-05T05:28:25;15.23;;;7.13;;
9508;SDS011;4792;50.088;8.122;2023-03-05T05:30:53;14.77;;;6.80;;
9508;SDS011;4792;50.088;8.122;2023-03-05T05:33:22;13.03;;;6.87;;
9508;SDS011;4792;50.088;8.122;2023-03-05T05:35:50;14.53;;;7.07;;
9508;SDS011;4792;50.088;8.122;2023-03-05T05:38:18;17.70;;;8.07;;
9508;SDS011;4792;50.088;8.122;2023-03-05T05:40:46;17.13;;;7.60;;
9508;SDS011;4792;50.088;8.122;2023-03-05T05:43:14;14.70;;;7.17;;
9508;SDS011;4792;50.088;8.122;2023-03-05T05:45:41;15.03;;;6.90;;
9508;SDS011;4792;50.088;8.122;2023-03-05T05:48:10;16.83;;;7.13;;
9508;SDS011;4792;50.088;8.122;2023-03-05T05:50:39;12.30;;;6.70;;
9508;SDS011;4792;50.088;8.122;2023-03-05T05:53:07;12.57;;;7.10;;
9508;SDS011;4792;50.088;8.122;2023-03-05T05:55:38;16.70;;;7.33;;
9508;SDS011;4792;50.088;8.122;2023-03-05T05:58:06;16.20;;;7.30;;
9508;SDS011;4792;50.088;8.122;2023-03-05T06:00:34;13.80;;;7.00;;
9508;SDS011;4792;50.088;8.122;2023-03-05T06:03:01;14.53;;;7.67;;
9508;SDS011;4792;50.088;8.122;2023-03-05T06:05:29;14.07;;;7.80;;
9508;SDS011;4792;50.088;8.122;2023-03-05T06:07:58;20.37;;;8.10;;
9508;SDS011;4792;50.088;8.122;2023-03-05T06:10:26;16.53;;;7.93;;
9508;SDS011;4792;50.088;8.122;2023-03-05T06:12:54;17.37;;;8.87;;
9508;SDS011;4792;50.088;8.122;2023-03-05T06:15:22;20.03;;;8.37;;
9508;SDS011;4792;50.088;8.122;2023-03-05T06:17:50;18.20;;;9.17;;
9508;SDS011;4792;50.088;8.122;2023-03-05T06:20:19;14.60;;;7.87;;
9508;SDS011;4792;50.088;8.122;2023-03-05T06:22:48;19.83;;;8.90;;
9508;SDS011;4792;50.088;8.122;2023-03-05T06:25:17;17.27;;;9.07;;
9508;SDS011;4792;50.088;8.122;2023-03-05T06:27:45;19.70;;;9.93;;
9508;SDS011;4792;50.088;8.122;2023-03-05T06:30:13;19.17;;;9.33;;
9508;SDS011;4792;50.088;8.122;2023-03-05T06:32:41;17.80;;;9.50;;
9508;SDS011;4792;50.088;8.122;2023-03-05T06:35:09;19.47;;;9.73;;
9508;SDS011;4792;50.088;8.122;2023-03-05T06:37:37;19.53;;;9.53;;
9508;SDS011;4792;50.088;8.122;2023-03-05T06:40:05;17.57;;;9.43;;
9508;SDS011;4792;50.088;8.122;2023-03-05T06:42:36;19.97;;;9.93;;
9508;SDS011;4792;50.088;8.122;2023-03-05T06:45:04;16.73;;;8.90;;
9508;SDS011;4792;50.088;8.122;2023-03-05T06:47:33;17.40;;;8.67;;
9508;SDS011;4792;50.088;8.122;2023-03-05T06:50:01;16.07;;;8.63;;
9508;SDS011;4792;50.088;8.122;2023-03-05T06:52:28;21.87;;;9.30;;
9508;SDS011;4792;50.088;8.122;2023-03-05T06:54:56;21.33;;;8.37;;
9508;SDS011;4792;50.088;8.122;2023-03-05T06:57:24;17.57;;;7.77;;
9508;SDS011;4792;50.088;8.122;2023-03-05T06:59:53;16.63;;;7.23;;
9508;SDS011;4792;50.088;8.122;2023-03-05T07:02:21;17.37;;;7.83;;
9508;SDS011;4792;50.088;8.122;2023-03-05T07:04:49;14.60;;;6.47;;
9508;SDS011;4792;50.088;8.122;2023-03-05T07:07:17;15.73;;;7.50;;
9508;SDS011;4792;50.088;8.122;2023-03-05T07:09:45;14.77;;;7.03;;
9508;SDS011;4792;50.088;8.122;2023-03-05T07:12:15;12.23;;;6.23;;
9508;SDS011;4792;50.088;8.122;2023-03-05T07:14:43;15.23;;;7.13;;
9508;SDS011;4792;50.088;8.122;2023-03-05T07:17:12;14.90;;;6.60;;
9508;SDS011;4792;50.088;8.122;2023-03-05T07:19:41;15.80;;;6.97;;
9508;SDS011;4792;50.088;8.122;2023-03-05T07:22:09;12.10;;;5.90;;
9508;SDS011;4792;50.088;8.122;2023-03-05T07:24:39;15.50;;;5.47;;
9508;SDS011;4792;50.088;8.122;2023-03-05T07:27:07;11.90;;;5.53;;
9508;SDS011;4792;50.088;8.122;2023-03-05T07:29:35;11.00;;;5.30;;
9508;SDS011;4792;50.088;8.122;2023-03-05T07:32:04;11.40;;;5.30;;
9508;SDS011;4792;50.088;8.122;2023-03-05T07:34:35;14.10;;;5.73;;
9508;SDS011;4792;50.088;8.122;2023-03-05T07:37:03;10.23;;;5.20;;
9508;SDS011;4792;50.088;8.122;2023-03-05T07:39:31;9.67;;;4.90;;
9508;SDS011;4792;50.088;8.122;2023-03-05T07:41:59;10.70;;;5.20;;
9508;SDS011;4792;50.088;8.122;2023-03-05T07:44:27;13.83;;;5.43;;
9508;SDS011;4792;50.088;8.122;2023-03-05T07:46:55;12.50;;;5.77;;
9508;SDS011;4792;50.088;8.122;2023-03-05T07:49:23;10.80;;;5.37;;
9508;SDS011;4792;50.088;8.122;2023-03-05T07:51:52;13.77;;;4.93;;
9508;SDS011;4792;50.088;8.122;2023-03-05T07:54:20;12.60;;;4.90;;
9508;SDS011;4792;50.088;8.122;2023-03-05T07:56:47;9.97;;;4.50;;
9508;SDS011;4792;50.088;8.122;2023-03-05T07:59:15;10.83;;;4.67;;
9508;SDS011;4792;50.088;8.122;2023-03-05T08:01:43;12.10;;;5.13;;
9508;SDS011;4792;50.088;8.122;2023-03-05T08:04:11;11.63;;;4.70;;
9508;SDS011;4792;50.088;8.122;2023-03-05T08:06:39;9.53;;;4.70;;
9508;SDS011;4792;50.088;8.122;2023-03-05T08:09:09;9.77;;;4.70;;
9508;SDS011;4792;50.088;8.122;2023-03-05T08:11:37;10.47;;;5.50;;
9508;SDS011;4792;50.088;8.122;2023-03-05T08:14:05;9.23;;;4.80;;
9508;SDS011;4792;50.088;8.122;2023-03-05T08:16:34;10.53;;;5.50;;
9508;SDS011;4792;50.088;8.122;2023-03-05T08:19:02;10.07;;;4.30;;
9508;SDS011;4792;50.088;8.122;2023-03-05T08:21:30;15.17;;;5.10;;
9508;SDS011;4792;50.088;8.122;2023-03-05T08:24:00;9.27;;;5.07;;
9508;SDS011;4792;50.088;8.122;2023-03-05T08:26:30;9.00;;;5.27;;
9508;SDS011;4792;50.088;8.122;2023-03-05T08:29:01;12.47;;;4.93;;
9508;SDS011;4792;50.088;8.122;2023-03-05T08:31:29;13.67;;;6.07;;
9508;SDS011;4792;50.088;8.122;2023-03-05T08:33:58;12.30;;;5.17;;
9508;SDS011;4792;50.088;8.122;2023-03-05T08:36:28;13.03;;;6.07;;
9508;SDS011;4792;50.088;8.122;2023-03-05T08:38:56;11.33;;;5.57;;
9508;SDS011;4792;50.088;8.122;2023-03-05T08:41:25;11.63;;;6.17;;
9508;SDS011;4792;50.088;8.122;2023-03-05T08:43:54;13.37;;;6.60;;
9508;SDS011;4792;50.088;8.122;2023-03-05T08:46:22;11.80;;;6.10;;
9508;SDS011;4792;50.088;8.122;2023-03-05T08:48:50;13.83;;;5.90;;
9508;SDS011;4792;50.088;8.122;2023-03-05T08:51:19;12.17;;;6.47;;
9508;SDS011;4792;50.088;8.122;2023-03-05T08:53:48;12.63;;;7.73;;
9508;SDS011;4792;50.088;8.122;2023-03-05T08:56:16;11.27;;;5.63;;
9508;SDS011;4792;50.088;8.122;2023-03-05T08:58:44;10.77;;;5.53;;
9508;SDS011;4792;50.088;8.122;2023-03-05T09:01:14;18.07;;;9.60;;
9508;SDS011;4792;50.088;8.122;2023-03-05T09:03:42;14.70;;;7.83;;
9508;SDS011;4792;50.088;8.122;2023-03-05T09:06:10;11.43;;;6.07;;
9508;SDS011;4792;50.088;8.122;2023-03-05T09:08:38;14.33;;;5.60;;
9508;SDS011;4792;50.088;8.122;2023-03-05T09:11:07;10.90;;;5.80;;
9508;SDS011;4792;50.088;8.122;2023-03-05T09:13:36;16.50;;;9.73;;
9508;SDS011;4792;50.088;8.122;2023-03-05T09:16:04;35.27;;;18.17;;
9508;SDS011;4792;50.088;8.122;2023-03-05T09:18:34;22.17;;;11.20;;
9508;SDS011;4792;50.088;8.122;2023-03-05T09:21:03;26.10;;;13.03;;
9508;SDS011;4792;50.088;8.122;2023-03-05T09:23:31;16.70;;;7.70;;
9508;SDS011;4792;50.088;8.122;2023-03-05T09:25:59;35.90;;;19.07;;
9508;SDS011;4792;50.088;8.122;2023-03-05T09:28:27;16.57;;;6.63;;
9508;SDS011;4792;50.088;8.122;2023-03-05T09:30:55;14.73;;;7.07;;
9508;SDS011;4792;50.088;8.122;2023-03-05T09:33:23;13.43;;;6.07;;
9508;SDS011;4792;50.088;8.122;2023-03-05T09:35:52;12.97;;;6.13;;
9508;SDS011;4792;50.088;8.122;2023-03-05T09:38:20;14.97;;;7.20;;
9508;SDS011;4792;50.088;8.122;2023-03-05T09:40:49;13.97;;;6.17;;
9508;SDS011;4792;50.088;8.122;2023-03-05T09:43:30;13.53;;;6.87;;
9508;SDS011;4792;50.088;8.122;2023-03-05T09:46:05;14.20;;;6.70;;
9508;SDS011;4792;50.088;8.122;2023-03-05T09:48:45;10.53;;;6.10;;
9508;SDS011;4792;50.088;8.122;2023-03-05T09:51:20;12.80;;;6.20;;
9508;SDS011;4792;50.088;8.122;2023-03-05T09:53:50;15.13;;;7.03;;
9508;SDS011;4792;50.088;8.122;2023-03-05T09:56:22;14.23;;;6.83;;
9508;SDS011;4792;50.088;8.122;2023-03-05T09:58:53;14.67;;;6.30;;
9508;SDS011;4792;50.088;8.122;2023-03-05T10:01:24;11.30;;;6.10;;
9508;SDS011;4792;50.088;8.122;2023-03-05T10:03:56;14.37;;;6.70;;
9508;SDS011;4792;50.088;8.122;2023-03-05T10:06:28;11.40;;;6.17;;
9508;SDS011;4792;50.088;8.122;2023-03-05T10:08:57;8.20;;;4.77;;
9508;SDS011;4792;50.088;8.122;2023-03-05T10:11:38;11.67;;;5.47;;
9508;SDS011;4792;50.088;8.122;2023-03-05T10:14:10;11.00;;;5.40;;
9508;SDS011;4792;50.088;8.122;2023-03-05T10:16:52;12.13;;;5.07;;
9508;SDS011;4792;50.088;8.122;2023-03-05T10:19:32;9.77;;;5.20;;
9508;SDS011;4792;50.088;8.122;2023-03-05T10:22:12;10.27;;;4.77;;
9508;SDS011;4792;50.088;8.122;2023-03-05T10:24:44;10.30;;;4.63;;
9508;SDS011;4792;50.088;8.122;2023-03-05T10:27:20;11.00;;;5.53;;
9508;SDS011;4792;50.088;8.122;2023-03-05T10:29:58;9.80;;;5.13;;
9508;SDS011;4792;50.088;8.122;2023-03-05T10:32:34;11.23;;;5.47;;
9508;SDS011;4792;50.088;8.122;2023-03-05T10:35:18;15.90;;;5.27;;
9508;SDS011;4792;50.088;8.122;2023-03-05T10:37:56;8.10;;;4.77;;
9508;SDS011;4792;50.088;8.122;2023-03-05T10:40:38;11.33;;;4.63;;
9508;SDS011;4792;50.088;8.122;2023-03-05T10:43:12;8.60;;;4.20;;
9508;SDS011;4792;50.088;8.122;2023-03-05T10:45:47;10.03;;;5.30;;
9508;SDS011;4792;50.088;8.122;2023-03-05T10:48:20;10.00;;;4.17;;
9508;SDS011;4792;50.088;8.122;2023-03-05T10:50:55;7.67;;;4.30;;
9508;SDS011;4792;50.088;8.122;2023-03-05T10:53:27;9.00;;;4.30;;
9508;SDS011;4792;50.088;8.122;2023-03-05T10:55:57;8.27;;;4.43;;
9508;SDS011;4792;50.088;8.122;2023-03-05T10:58:27;7.37;;;4.23;;
9508;SDS011;4792;50.088;8.122;2023-03-05T11:01:02;6.70;;;3.97;;
9508;SDS011;4792;50.088;8.122;2023-03-05T11:03:44;8.37;;;4.37;;
9508;SDS011;4792;50.088;8.122;2023-03-05T11:06:28;6.17;;;3.70;;
9508;SDS011;4792;50.088;8.122;2023-03-05T11:12:02;7.90;;;3.87;;
9508;SDS011;4792;50.088;8.122;2023-03-05T11:14:40;6.17;;;3.50;;
9508;SDS011;4792;50.088;8.122;2023-03-05T11:17:29;6.13;;;3.40;;
9508;SDS011;4792;50.088;8.122;2023-03-05T11:23:01;6.33;;;3.20;;
9508;SDS011;4792;50.088;8.122;2023-03-05T11:25:32;6.30;;;3.53;;
9508;SDS011;4792;50.088;8.122;2023-03-05T11:28:01;6.80;;;3.30;;
9508;SDS011;4792;50.088;8.122;2023-03-05T11:30:30;7.53;;;3.70;;
9508;SDS011;4792;50.088;8.122;2023-03-05T11:33:06;10.57;;;5.80;;
9508;SDS011;4792;50.088;8.122;2023-03-05T11:35:36;10.43;;;3.53;;
9508;SDS011;4792;50.088;8.122;2023-03-05T11:38:19;8.53;;;3.17;;
9508;SDS011;4792;50.088;8.122;2023-03-05T11:40:52;6.20;;;3.20;;
9508;SDS011;4792;50.088;8.122;2023-03-05T11:43:22;4.97;;;3.33;;
9508;SDS011;4792;50.088;8.122;2023-03-05T11:45:52;10.27;;;3.77;;
9508;SDS011;4792;50.088;8.122;2023-03-05T11:48:23;7.10;;;3.30;;
9508;SDS011;4792;50.088;8.122;2023-03-05T11:50:53;4.73;;;2.63;;
9508;SDS011;4792;50.088;8.122;2023-03-05T11:53:23;5.63;;;3.10;;
9508;SDS011;4792;50.088;8.122;2023-03-05T11:55:56;3.60;;;2.10;;
9508;SDS011;4792;50.088;8.122;2023-03-05T11:58:27;5.37;;;2.60;;
9508;SDS011;4792;50.088;8.122;2023-03-05T12:00:58;6.83;;;2.40;;
9508;SDS011;4792;50.088;8.122;2023-03-05T12:03:28;4.93;;;2.53;;
9508;SDS011;4792;50.088;8.122;2023-03-05T12:05:59;5.40;;;2.50;;
9508;SDS011;4792;50.088;8.122;2023-03-05T12:08:30;5.77;;;2.43;;
9508;SDS011;4792;50.088;8.122;2023-03-05T12:11:03;4.43;;;2.40;;
9508;SDS011;4792;50.088;8.122;2023-03-05T12:13:33;7.73;;;2.17;;
9508;SDS011;4792;50.088;8.122;2023-03-05T12:16:04;2.83;;;1.80;;
9508;SDS011;4792;50.088;8.122;2023-03-05T12:18:51;2.57;;;1.80;;
9508;SDS011;4792;50.088;8.122;2023-03-05T12:21:26;2.47;;;1.80;;
9508;SDS011;4792;50.088;8.122;2023-03-05T12:23:59;2.90;;;2.30;;
9508;SDS011;4792;50.088;8.122;2023-03-05T12:29:28;3.13;;;2.00;;
9508;SDS011;4792;50.088;8.122;2023-03-05T12:32:10;4.50;;;1.90;;
9508;SDS011;4792;50.088;8.122;2023-03-05T12:35:30;3.27;;;2.40;;
9508;SDS011;4792;50.088;8.122;2023-03-05T12:44:18;5.63;;;3.33;;
9508;SDS011;4792;50.088;8.122;2023-03-05T12:49:43;5.30;;;3.30;;
9508;SDS011;4792;50.088;8.122;2023-03-05T12:52:14;6.07;;;3.20;;
9508;SDS011;4792;50.088;8.122;2023-03-05T12:55:00;7.27;;;3.00;;
9508;SDS011;4792;50.088;8.122;2023-03-05T12:57:44;6.73;;;3.20;;
9508;SDS011;4792;50.088;8.122;2023-03-05T13:00:15;4.87;;;2.70;;
9508;SDS011;4792;50.088;8.122;2023-03-05T13:02:47;3.43;;;2.40;;
9508;SDS011;4792;50.088;8.122;2023-03-05T13:05:22;5.77;;;2.63;;
9508;SDS011;4792;50.088;8.122;2023-03-05T13:07:52;5.23;;;2.47;;
9508;SDS011;4792;50.088;8.122;2023-03-05T13:10:20;5.27;;;3.33;;
9508;SDS011;4792;50.088;8.122;2023-03-05T13:12:50;5.40;;;3.00;;
9508;SDS011;4792;50.088;8.122;2023-03-05T13:15:21;3.63;;;2.40;;
9508;SDS011;4792;50.088;8.122;2023-03-05T13:17:51;4.53;;;3.00;;
9508;SDS011;4792;50.088;8.122;2023-03-05T13:20:31;5.63;;;2.60;;
9508;SDS011;4792;50.088;8.122;2023-03-05T13:23:13;4.60;;;2.80;;
9508;SDS011;4792;50.088;8.122;2023-03-05T13:25:42;4.27;;;2.40;;
9508;SDS011;4792;50.088;8.122;2023-03-05T13:28:12;4.10;;;2.67;;
9508;SDS011;4792;50.088;8.122;2023-03-05T13:30:44;4.60;;;2.70;;
9508;SDS011;4792;50.088;8.122;2023-03-05T13:33:18;6.83;;;2.90;;
9508;SDS011;4792;50.088;8.122;2023-03-05T13:35:49;4.70;;;2.90;;
9508;SDS011;4792;50.088;8.122;2023-03-05T13:38:23;4.30;;;2.70;;
9508;SDS011;4792;50.088;8.122;2023-03-05T13:41:03;4.30;;;3.03;;
9508;SDS011;4792;50.088;8.122;2023-03-05T13:43:33;5.47;;;2.90;;
9508;SDS011;4792;50.088;8.122;2023-03-05T13:46:10;4.00;;;2.73;;
9508;SDS011;4792;50.088;8.122;2023-03-05T13:48:38;4.50;;;2.57;;
9508;SDS011;4792;50.088;8.122;2023-03-05T13:51:06;5.20;;;3.07;;
9508;SDS011;4792;50.088;8.122;2023-03-05T13:53:34;6.17;;;2.97;;
9508;SDS011;4792;50.088;8.122;2023-03-05T13:56:03;26.57;;;10.30;;
9508;SDS011;4792;50.088;8.122;2023-03-05T13:58:42;6.50;;;3.53;;
9508;SDS011;4792;50.088;8.122;2023-03-05T14:01:17;5.40;;;3.60;;
9508;SDS011;4792;50.088;8.122;2023-03-05T14:03:50;5.60;;;3.20;;
9508;SDS011;4792;50.088;8.122;2023-03-05T14:06:19;5.70;;;3.33;;
9508;SDS011;4792;50.088;8.122;2023-03-05T14:08:48;9.43;;;3.97;;
9508;SDS011;4792;50.088;8.122;2023-03-05T14:11:18;7.43;;;3.07;;
9508;SDS011;4792;50.088;8.122;2023-03-05T14:13:46;4.30;;;2.87;;
9508;SDS011;4792;50.088;8.122;2023-03-05T14:16:23;5.07;;;2.87;;
9508;SDS011;4792;50.088;8.122;2023-03-05T14:18:53;4.40;;;2.90;;
9508;SDS011;4792;50.088;8.122;2023-03-05T14:21:23;5.73;;;3.30;;
9508;SDS011;4792;50.088;8.122;2023-03-05T14:23:51;5.03;;;2.73;;
9508;SDS011;4792;50.088;8.122;2023-03-05T14:26:27;5.77;;;3.77;;
9508;SDS011;4792;50.088;8.122;2023-03-05T14:28:58;4.83;;;2.90;;
9508;SDS011;4792;50.088;8.122;2023-03-05T14:31:29;7.23;;;3.20;;
9508;SDS011;4792;50.088;8.122;2023-03-05T14:34:02;4.90;;;2.93;;
9508;SDS011;4792;50.088;8.122;2023-03-05T14:36:31;4.67;;;3.30;;
9508;SDS011;4792;50.088;8.122;2023-03-05T14:38:59;5.13;;;2.97;;
9508;SDS011;4792;50.088;8.122;2023-03-05T14:41:32;4.20;;;2.73;;
9508;SDS011;4792;50.088;8.122;2023-03-05T14:44:04;5.03;;;2.87;;
9508;SDS011;4792;50.088;8.122;2023-03-05T14:46:38;3.90;;;3.00;;
9508;SDS011;4792;50.088;8.122;2023-03-05T14:49:06;7.07;;;4.37;;
9508;SDS011;4792;50.088;8.122;2023-03-05T14:51:36;6.80;;;3.27;;
9508;SDS011;4792;50.088;8.122;2023-03-05T14:54:05;7.10;;;3.60;;
9508;SDS011;4792;50.088;8.122;2023-03-05T14:56:33;5.87;;;3.43;;
9508;SDS011;4792;50.088;8.122;2023-03-05T14:59:01;7.03;;;3.73;;
9508;SDS011;4792;50.088;8.122;2023-03-05T15:01:29;5.23;;;3.80;;
9508;SDS011;4792;50.088;8.122;2023-03-05T15:03:58;4.27;;;2.93;;
9508;SDS011;4792;50.088;8.122;2023-03-05T15:06:29;5.03;;;3.40;;
9508;SDS011;4792;50.088;8.122;2023-03-05T15:08:58;6.00;;;3.80;;
9508;SDS011;4792;50.088;8.122;2023-03-05T15:11:26;7.10;;;3.90;;
9508;SDS011;4792;50.088;8.122;2023-03-05T15:13:54;4.03;;;3.10;;
9508;SDS011;4792;50.088;8.122;2023-03-05T15:16:22;6.63;;;4.33;;
9508;SDS011;4792;50.088;8.122;2023-03-05T15:18:50;6.30;;;4.30;;
9508;SDS011;4792;50.088;8.122;2023-03-05T15:21:19;7.13;;;3.63;;
9508;SDS011;4792;50.088;8.122;2023-03-05T15:23:47;5.30;;;3.47;;
9508;SDS011;4792;50.088;8.122;2023-03-05T15:26:15;8.20;;;3.83;;
9508;SDS011;4792;50.088;8.122;2023-03-05T15:28:43;5.37;;;3.90;;
9508;SDS011;4792;50.088;8.122;2023-03-05T15:31:10;6.10;;;3.53;;
9508;SDS011;4792;50.088;8.122;2023-03-05T15:33:38;5.03;;;3.20;;
9508;SDS011;4792;50.088;8.122;2023-03-05T15:36:07;7.33;;;4.40;;
9508;SDS011;4792;50.088;8.122;2023-03-05T15:38:37;7.20;;;4.80;;